Angelica, Brazil
Current Conditions -  °F | °C
As of 3:00 PM on Friday 21 Nov 2014 (Local Time) from SBCG Reporting Station
Broken Clouds Broken Clouds  
Wind Chill: 88°   Ceiling: 3500
Heat Index: 94°   Visibility: 6mi
Dew Point: 72°   Wind: 10mph
Humidity: 58%   Direction: 350°N
Pressure: 29.85"   Gusts: NA
Location:  22.15°S, 53.77°W
Report Text: SBCG 211800Z 35009KT 9999 BKN035 FEW040TCU 31/22 Q1011
Loading
Personal Weather Stations






























Interactive Weather Map New forecast layout! Learn more

10-Day Weather Forecast

Advertisements
Track Severe Weather on mobile